Aurora, CO (80046)

6:41 AM MDT on May 22, 2015 (GMT -0600)
Pheasant Run | | Change Station
CLOSE
Current Station
Personal Weather Station
Location: Aurora, CO
Elevation: 5761 ft
Nearby Weather Stations

Elev 5761 ft 39.63 °N, 104.80 °W | Updated 11 minutes ago

Rain
Rain
45.5 °F
Feels Like 46 °F
N
0.0
Wind Variable Wind from SW
Gusts 0.0 mph

Today
High -- | Low -- °F
--% Chance of Precip.
Yesterday
High -- | Low -- °F
Precip. -- in
5:39 AM 8:12 PM
Waxing Crescent, 21% visible
Pressure 29.99 in
Visibility 6.0 miles
Clouds Mostly Cloudy 2500 ft
Overcast 4300 ft
Windchill 46 °F
Dew Point 45 °F
Humidity 97%
Rainfall 0.05 in
Snow Depth Not available.
UV 0 out of 12
Pollen 3.80 out of 12
Air Quality Not available.
Flu Activity Sporadic
SPECI KAPA 221203Z 18004KT 6SM -RA BR BKN025 OVC043 07/07 A2999 RMK AO2 P0000 T00720067

More Conditions Fewer Conditions

Pressure 29.99 in
Visibility 6.0 miles
Clouds Mostly Cloudy 2500 ft
Overcast 4300 ft
Windchill 46 °F
Dew Point 45 °F
Humidity 97%
Rainfall 0.05 in
Snow Depth Not available.
UV 0 out of 12
Pollen 3.80 out of 12
Air Quality Not available.
Flu Activity Sporadic
SPECI KAPA 221203Z 18004KT 6SM -RA BR BKN025 OVC043 07/07 A2999 RMK AO2 P0000 T00720067

More Conditions Fewer Conditions

Nowcast | as of 5:15 am MDT on May 22, 2015

Rain showers will become more widespread across the Front Range foothills and adjacent plains through the early morning hours. Rainfall rates will be around a tenth of an inch per hour.

×

10-Day Weather Forecast

Almanac

Astronomy

May. 22, 2015 Rise Set
Actual Time
Civil Twilight
Nautical Twilight
Astronomical Twilight
Moon
Length of Visible Light
Length of Day
Tomorrow will be .
, % of the Moon is Illuminated

Today's Extremes

State Highs State Lows

Community

WunderPhotos

Upload Photos

1,823,209 photos uploaded!

WunderBlogs® & News

Nearby

Air Quality

  Air Quality AQ Index Pollutant
Not available.

Snow Depth

Station Depth Elevation

Earthquake Activity

City Distance Mag. Time & Date
Minimum magnitude displayed is 2.5.

Coastal Water Temperatures

Place Temperature

Stations

Nearby Weather Stations

Station Location Temp. Windchill Dew Point Humidity Wind Precip. Elev Updated Type